createdAt,value
2023-04-28T00:00:42.698Z,1008.79
2023-04-28T00:01:42.696Z,1008.75
2023-04-28T00:02:42.791Z,1008.72
2023-04-28T00:03:42.875Z,1008.70
2023-04-28T00:04:42.785Z,1008.71
2023-04-28T00:05:42.946Z,1008.68
2023-04-28T00:06:42.678Z,1008.66
2023-04-28T00:07:42.676Z,1008.62
2023-04-28T00:08:42.674Z,1008.63
2023-04-28T00:09:42.692Z,1008.63
2023-04-28T00:10:42.668Z,1008.57
2023-04-28T00:11:42.663Z,1008.55
2023-04-28T00:12:42.681Z,1008.54
2023-04-28T00:13:42.654Z,1008.49
2023-04-28T00:14:42.667Z,1008.47
2023-04-28T00:15:42.646Z,1008.48
2023-04-28T00:16:42.798Z,1008.43
2023-04-28T00:17:42.798Z,1008.41
2023-04-28T00:18:42.641Z,1008.44
2023-04-28T00:19:42.644Z,1008.41
2023-04-28T00:20:42.641Z,1008.39
2023-04-28T00:21:42.627Z,1008.38
2023-04-28T00:22:42.646Z,1008.36
2023-04-28T00:23:42.621Z,1008.36
2023-04-28T00:24:42.623Z,1008.35
2023-04-28T00:25:42.630Z,1008.29
2023-04-28T00:26:42.608Z,1008.26
2023-04-28T00:27:42.606Z,1008.26
2023-04-28T00:28:42.617Z,1008.21
2023-04-28T00:29:42.597Z,1008.19
2023-04-28T00:30:42.599Z,1008.19
2023-04-28T00:31:42.661Z,1008.16
2023-04-28T00:32:42.623Z,1008.20
2023-04-28T00:33:42.586Z,1008.19
2023-04-28T00:34:42.582Z,1008.14
2023-04-28T00:35:42.582Z,1008.13
2023-04-28T00:36:42.600Z,1008.13
2023-04-28T00:37:42.569Z,1008.13
2023-04-28T00:38:42.571Z,1008.14
2023-04-28T00:39:42.562Z,1008.14
2023-04-28T00:40:42.573Z,1008.13
2023-04-28T00:41:42.592Z,1008.12
2023-04-28T00:42:42.577Z,1008.12
2023-04-28T00:43:42.556Z,1008.09
2023-04-28T00:44:42.549Z,1008.14
2023-04-28T00:45:42.555Z,1008.12
2023-04-28T00:46:42.544Z,1008.10
2023-04-28T00:47:42.589Z,1008.10
2023-04-28T00:48:42.542Z,1008.11
2023-04-28T00:49:42.530Z,1008.09
2023-04-28T00:50:42.537Z,1008.12
2023-04-28T00:51:42.545Z,1008.14
2023-04-28T00:52:42.523Z,1008.16
2023-04-28T00:53:42.517Z,1008.10
2023-04-28T00:54:42.511Z,1008.12
2023-04-28T00:55:42.509Z,1008.11
2023-04-28T00:56:42.510Z,1008.18
2023-04-28T00:57:42.532Z,1008.11
2023-04-28T00:58:42.502Z,1008.10
2023-04-28T00:59:42.504Z,1008.06
2023-04-28T01:00:42.492Z,1008.01
2023-04-28T01:01:42.524Z,1008.04
2023-04-28T01:02:42.593Z,1008.02
2023-04-28T01:03:42.549Z,1008.00
2023-04-28T01:04:42.554Z,1007.99
2023-04-28T01:05:42.829Z,1008.00
2023-04-28T01:06:42.472Z,1007.98
2023-04-28T01:07:42.471Z,1007.96
2023-04-28T01:08:42.475Z,1008.01
2023-04-28T01:09:42.462Z,1007.99
2023-04-28T01:10:42.458Z,1008.00
2023-04-28T01:11:42.456Z,1008.01
2023-04-28T01:12:42.451Z,1008.01
2023-04-28T01:13:42.464Z,1008.04
2023-04-28T01:14:42.446Z,1008.04
2023-04-28T01:15:42.441Z,1008.04
2023-04-28T01:16:42.523Z,1008.03
2023-04-28T01:17:42.471Z,1008.02
2023-04-28T01:18:42.430Z,1007.99
2023-04-28T01:19:42.434Z,1008.01
2023-04-28T01:20:42.433Z,1008.00
2023-04-28T01:21:42.422Z,1008.00
2023-04-28T01:22:42.427Z,1007.97
2023-04-28T01:23:42.413Z,1008.02
2023-04-28T01:24:42.412Z,1007.98
2023-04-28T01:25:42.417Z,1007.98
2023-04-28T01:26:42.403Z,1007.98
2023-04-28T01:27:42.396Z,1007.99
2023-04-28T01:28:42.396Z,1008.01
2023-04-28T01:29:42.477Z,1008.01
2023-04-28T01:30:42.393Z,1008.04
2023-04-28T01:31:42.424Z,1008.01
2023-04-28T01:32:42.407Z,1008.00
2023-04-28T01:33:42.381Z,1008.03
2023-04-28T01:34:42.380Z,1007.99
2023-04-28T01:35:42.371Z,1008.01
2023-04-28T01:36:42.373Z,1008.00
2023-04-28T01:37:42.369Z,1007.98
2023-04-28T01:38:42.375Z,1008.04
2023-04-28T01:39:42.357Z,1008.03
2023-04-28T01:40:42.363Z,1008.04
2023-04-28T01:41:42.349Z,1007.97
2023-04-28T01:42:42.347Z,1007.98
2023-04-28T01:43:42.343Z,1007.93
2023-04-28T01:44:42.349Z,1007.95
2023-04-28T01:45:42.361Z,1007.92
2023-04-28T01:46:42.383Z,1007.93
2023-04-28T01:47:42.375Z,1007.94
2023-04-28T01:48:42.330Z,1007.93
2023-04-28T01:49:42.324Z,1007.91
2023-04-28T01:50:42.322Z,1007.95
2023-04-28T01:51:42.317Z,1007.94
2023-04-28T01:52:42.321Z,1007.93
2023-04-28T01:53:42.309Z,1007.89
2023-04-28T01:54:42.311Z,1007.93
2023-04-28T01:55:42.306Z,1007.96
2023-04-28T01:56:42.302Z,1007.95
2023-04-28T01:57:42.297Z,1007.95
2023-04-28T01:58:42.309Z,1007.95
2023-04-28T01:59:42.292Z,1007.94
2023-04-28T02:00:42.285Z,1007.94
2023-04-28T02:01:42.344Z,1007.95
2023-04-28T02:02:42.355Z,1007.93
2023-04-28T02:03:42.422Z,1007.90
2023-04-28T02:04:42.362Z,1007.89
2023-04-28T02:05:42.620Z,1007.85
2023-04-28T02:06:42.266Z,1007.81
2023-04-28T02:07:42.265Z,1007.81
2023-04-28T02:08:42.257Z,1007.78
2023-04-28T02:09:42.254Z,1007.73
2023-04-28T02:10:42.264Z,1007.72
2023-04-28T02:11:42.255Z,1007.76
2023-04-28T02:12:42.244Z,1007.76
2023-04-28T02:13:42.265Z,1007.78
2023-04-28T02:14:42.236Z,1007.80
2023-04-28T02:15:42.271Z,1007.80
2023-04-28T02:16:42.229Z,1007.78
2023-04-28T02:17:42.300Z,1007.72
2023-04-28T02:18:42.220Z,1007.72
2023-04-28T02:19:42.220Z,1007.73
2023-04-28T02:20:42.213Z,1007.70
2023-04-28T02:21:42.210Z,1007.74
2023-04-28T02:22:42.221Z,1007.72
2023-04-28T02:23:42.213Z,1007.65
2023-04-28T02:24:42.202Z,1007.63
2023-04-28T02:25:42.197Z,1007.61
2023-04-28T02:26:42.190Z,1007.60
2023-04-28T02:27:42.191Z,1007.59
2023-04-28T02:28:42.183Z,1007.59
2023-04-28T02:29:42.197Z,1007.59
2023-04-28T02:30:42.185Z,1007.62
2023-04-28T02:31:42.284Z,1007.62
2023-04-28T02:32:42.182Z,1007.63
2023-04-28T02:33:42.193Z,1007.68
2023-04-28T02:34:42.160Z,1007.66
2023-04-28T02:35:42.167Z,1007.70
2023-04-28T02:36:42.155Z,1007.71
2023-04-28T02:37:42.154Z,1007.70
2023-04-28T02:38:42.149Z,1007.72
2023-04-28T02:39:42.145Z,1007.78
2023-04-28T02:40:42.143Z,1007.75
2023-04-28T02:41:42.139Z,1007.75
2023-04-28T02:42:42.138Z,1007.75
2023-04-28T02:43:42.136Z,1007.73
2023-04-28T02:44:42.127Z,1007.72
2023-04-28T02:45:42.124Z,1007.69
2023-04-28T02:46:42.154Z,1007.64
2023-04-28T02:47:42.125Z,1007.65
2023-04-28T02:48:42.112Z,1007.63
2023-04-28T02:49:42.148Z,1007.64
2023-04-28T02:50:42.106Z,1007.64
2023-04-28T02:51:42.105Z,1007.62
2023-04-28T02:52:42.106Z,1007.63
2023-04-28T02:53:42.105Z,1007.63
2023-04-28T02:54:42.098Z,1007.62
2023-04-28T02:55:42.098Z,1007.62
2023-04-28T02:56:42.088Z,1007.64
2023-04-28T02:57:42.083Z,1007.62
2023-04-28T02:58:42.081Z,1007.64
2023-04-28T02:59:42.114Z,1007.61
2023-04-28T03:00:42.079Z,1007.65
2023-04-28T03:01:42.178Z,1007.63
2023-04-28T03:02:42.153Z,1007.63
2023-04-28T03:03:42.178Z,1007.59
2023-04-28T03:04:42.178Z,1007.60
2023-04-28T03:05:42.075Z,1007.63
2023-04-28T03:06:42.068Z,1007.60
2023-04-28T03:07:42.050Z,1007.58
2023-04-28T03:08:42.045Z,1007.59
2023-04-28T03:09:42.466Z,1007.61
2023-04-28T03:10:42.045Z,1007.62
2023-04-28T03:11:42.032Z,1007.60
2023-04-28T03:12:42.036Z,1007.54
2023-04-28T03:13:42.046Z,1007.55
2023-04-28T03:14:42.021Z,1007.52
2023-04-28T03:15:42.019Z,1007.50
2023-04-28T03:16:42.161Z,1007.47
2023-04-28T03:17:42.108Z,1007.46
2023-04-28T03:18:42.004Z,1007.42
2023-04-28T03:19:42.005Z,1007.39
2023-04-28T03:20:41.998Z,1007.32
2023-04-28T03:21:42.016Z,1007.28
2023-04-28T03:22:41.993Z,1007.28
2023-04-28T03:23:41.997Z,1007.26
2023-04-28T03:24:41.990Z,1007.27
2023-04-28T03:25:41.986Z,1007.25
2023-04-28T03:26:41.978Z,1007.28
2023-04-28T03:27:41.986Z,1007.28
2023-04-28T03:28:41.969Z,1007.27
2023-04-28T03:29:41.981Z,1007.27
2023-04-28T03:30:41.970Z,1007.25
2023-04-28T03:31:41.997Z,1007.20
2023-04-28T03:32:41.984Z,1007.20
2023-04-28T03:33:41.950Z,1007.18
2023-04-28T03:34:41.948Z,1007.20
2023-04-28T03:35:41.969Z,1007.14
2023-04-28T03:36:41.940Z,1007.13
2023-04-28T03:37:41.963Z,1007.13
2023-04-28T03:38:41.951Z,1007.12
2023-04-28T03:39:41.931Z,1007.13
2023-04-28T03:40:41.945Z,1007.14
2023-04-28T03:41:41.932Z,1007.15
2023-04-28T03:42:41.923Z,1007.15
2023-04-28T03:43:41.916Z,1007.17
2023-04-28T03:44:41.914Z,1007.16
2023-04-28T03:45:41.946Z,1007.16
2023-04-28T03:46:41.906Z,1007.13
2023-04-28T03:47:41.904Z,1007.08
2023-04-28T03:48:41.902Z,1007.05
2023-04-28T03:49:41.894Z,1006.99
2023-04-28T03:50:41.890Z,1006.95
2023-04-28T03:51:41.888Z,1006.95
2023-04-28T03:52:41.886Z,1006.91
2023-04-28T03:53:41.901Z,1006.86
2023-04-28T03:54:41.875Z,1006.89
2023-04-28T03:55:41.875Z,1006.85
2023-04-28T03:56:41.873Z,1006.86
2023-04-28T03:57:41.870Z,1006.79
2023-04-28T03:58:41.889Z,1006.77
2023-04-28T03:59:41.864Z,1006.76
2023-04-28T04:00:41.865Z,1006.72
2023-04-28T04:01:41.857Z,1006.65
2023-04-28T04:02:41.927Z,1006.67
2023-04-28T04:03:42.214Z,1006.62
2023-04-28T04:04:42.020Z,1006.60
2023-04-28T04:05:41.920Z,1006.52
2023-04-28T04:06:41.854Z,1006.45
2023-04-28T04:07:41.836Z,1006.47
2023-04-28T04:08:41.832Z,1006.46
2023-04-28T04:09:41.872Z,1006.52
2023-04-28T04:10:42.270Z,1006.54
2023-04-28T04:11:41.819Z,1006.52
2023-04-28T04:12:41.811Z,1006.50
2023-04-28T04:13:41.810Z,1006.52
2023-04-28T04:14:41.800Z,1006.49
2023-04-28T04:15:41.893Z,1006.52
2023-04-28T04:16:41.803Z,1006.46
2023-04-28T04:17:41.819Z,1006.45
2023-04-28T04:18:41.789Z,1006.43
2023-04-28T04:19:41.787Z,1006.45
2023-04-28T04:20:41.784Z,1006.39
2023-04-28T04:21:41.786Z,1006.34
2023-04-28T04:22:41.774Z,1006.26
2023-04-28T04:23:41.837Z,1006.21
2023-04-28T04:24:41.773Z,1006.24
2023-04-28T04:25:41.781Z,1006.22
2023-04-28T04:26:41.764Z,1006.25
2023-04-28T04:27:41.754Z,1006.32
2023-04-28T04:28:41.748Z,1006.35
2023-04-28T04:29:41.747Z,1006.38
2023-04-28T04:30:41.741Z,1006.41
2023-04-28T04:31:41.896Z,1006.41
2023-04-28T04:32:41.768Z,1006.45
2023-04-28T04:33:41.734Z,1006.46
2023-04-28T04:34:41.726Z,1006.49
2023-04-28T04:35:41.725Z,1006.51
2023-04-28T04:36:41.715Z,1006.53
2023-04-28T04:37:41.717Z,1006.56
2023-04-28T04:38:41.709Z,1006.54
2023-04-28T04:39:41.705Z,1006.56
2023-04-28T04:40:41.701Z,1006.58
2023-04-28T04:41:41.725Z,1006.51
2023-04-28T04:42:41.690Z,1006.53
2023-04-28T04:43:41.694Z,1006.53
2023-04-28T04:44:41.693Z,1006.47
2023-04-28T04:45:41.684Z,1006.49
2023-04-28T04:46:41.710Z,1006.45
2023-04-28T04:47:41.692Z,1006.46
2023-04-28T04:48:41.670Z,1006.48
2023-04-28T04:49:41.667Z,1006.39
2023-04-28T04:50:41.663Z,1006.35
2023-04-28T04:51:41.665Z,1006.31
2023-04-28T04:52:41.675Z,1006.27
2023-04-28T04:53:41.655Z,1006.28
2023-04-28T04:54:41.658Z,1006.29
2023-04-28T04:55:41.653Z,1006.30
2023-04-28T04:56:41.641Z,1006.29
2023-04-28T04:57:41.670Z,1006.29
2023-04-28T04:58:41.639Z,1006.30
2023-04-28T04:59:41.634Z,1006.27
2023-04-28T05:00:41.632Z,1006.24
2023-04-28T05:01:41.688Z,1006.26
2023-04-28T05:02:41.783Z,1006.20
2023-04-28T05:03:41.726Z,1006.19
2023-04-28T05:04:41.685Z,1006.17
2023-04-28T05:05:41.620Z,1006.22
2023-04-28T05:06:41.614Z,1006.27
2023-04-28T05:07:41.601Z,1006.29
2023-04-28T05:08:41.602Z,1006.35
2023-04-28T05:09:41.598Z,1006.36
2023-04-28T05:10:41.595Z,1006.39
2023-04-28T05:11:41.596Z,1006.37
2023-04-28T05:12:41.584Z,1006.39
2023-04-28T05:13:41.611Z,1006.39
2023-04-28T05:14:41.585Z,1006.39
2023-04-28T05:15:41.928Z,1006.37
2023-04-28T05:16:41.658Z,1006.39
2023-04-28T05:17:41.589Z,1006.41
2023-04-28T05:18:41.574Z,1006.39
2023-04-28T05:19:41.562Z,1006.38
2023-04-28T05:20:41.559Z,1006.27
2023-04-28T05:21:41.555Z,1006.27
2023-04-28T05:22:41.552Z,1006.24
2023-04-28T05:23:41.550Z,1006.22
2023-04-28T05:24:41.545Z,1006.18
2023-04-28T05:25:41.552Z,1006.21
2023-04-28T05:26:41.545Z,1006.22
2023-04-28T05:27:41.539Z,1006.24
2023-04-28T05:28:41.538Z,1006.23
2023-04-28T05:29:41.554Z,1006.25
2023-04-28T05:30:41.519Z,1006.26
2023-04-28T05:31:41.562Z,1006.31
2023-04-28T05:32:41.574Z,1006.33
2023-04-28T05:33:41.523Z,1006.37
2023-04-28T05:34:41.509Z,1006.39
2023-04-28T05:35:41.504Z,1006.36
2023-04-28T05:36:41.499Z,1006.35
2023-04-28T05:37:41.501Z,1006.31
2023-04-28T05:38:41.501Z,1006.30
2023-04-28T05:39:41.491Z,1006.34
2023-04-28T05:40:41.483Z,1006.32
2023-04-28T05:41:41.484Z,1006.33
2023-04-28T05:42:41.492Z,1006.33
2023-04-28T05:43:41.473Z,1006.33
2023-04-28T05:44:43.115Z,1006.36
2023-04-28T05:45:41.509Z,1006.31
2023-04-28T05:46:41.510Z,1006.28
2023-04-28T05:47:41.493Z,1006.28
2023-04-28T05:48:41.461Z,1006.27
2023-04-28T05:49:41.458Z,1006.20
2023-04-28T05:50:41.447Z,1006.20
2023-04-28T05:51:41.452Z,1006.20
2023-04-28T05:52:41.443Z,1006.19
2023-04-28T05:53:41.437Z,1006.25
2023-04-28T05:54:41.440Z,1006.23
2023-04-28T05:55:41.461Z,1006.27
2023-04-28T05:56:41.423Z,1006.26
2023-04-28T05:57:51.813Z,1006.23
2023-04-28T05:58:41.423Z,1006.19
2023-04-28T05:59:41.426Z,1006.15
2023-04-28T06:00:41.434Z,1006.06
2023-04-28T06:01:41.440Z,1006.05
2023-04-28T06:02:41.503Z,1006.01
2023-04-28T06:03:41.561Z,1006.05
2023-04-28T06:04:41.651Z,1006.09
2023-04-28T06:05:41.525Z,1006.09
2023-04-28T06:06:41.403Z,1006.08
2023-04-28T06:07:41.405Z,1006.07
2023-04-28T06:08:41.385Z,1006.07
2023-04-28T06:09:41.377Z,1006.03
2023-04-28T06:10:41.382Z,1006.08
2023-04-28T06:11:41.380Z,1006.06
2023-04-28T06:12:41.372Z,1006.03
2023-04-28T06:13:41.384Z,1006.07
2023-04-28T06:14:41.367Z,1006.02
2023-04-28T06:15:41.606Z,1005.99
2023-04-28T06:16:41.365Z,1005.93
2023-04-28T06:17:41.443Z,1005.95
2023-04-28T06:18:41.350Z,1005.96
2023-04-28T06:19:41.345Z,1005.94
2023-04-28T06:20:41.348Z,1005.90
2023-04-28T06:21:41.339Z,1005.95
2023-04-28T06:22:41.361Z,1005.93
2023-04-28T06:23:41.337Z,1005.94
2023-04-28T06:24:41.328Z,1005.95
2023-04-28T06:25:41.325Z,1005.97
2023-04-28T06:26:41.322Z,1005.98
2023-04-28T06:27:41.339Z,1005.97
2023-04-28T06:28:41.325Z,1005.97
2023-04-28T06:29:41.314Z,1005.94
2023-04-28T06:30:41.308Z,1005.91
2023-04-28T06:31:41.348Z,1005.89
2023-04-28T06:32:41.351Z,1005.88
2023-04-28T06:33:41.316Z,1005.97
2023-04-28T06:34:41.295Z,1005.97
2023-04-28T06:35:41.287Z,1005.99
2023-04-28T06:36:41.291Z,1005.99
2023-04-28T06:37:41.282Z,1006.04
2023-04-28T06:38:41.283Z,1006.05
2023-04-28T06:39:41.276Z,1006.05
2023-04-28T06:40:41.374Z,1006.09
2023-04-28T06:41:41.267Z,1006.10
2023-04-28T06:42:41.277Z,1006.11
2023-04-28T06:43:41.266Z,1006.08
2023-04-28T06:44:41.261Z,1006.09
2023-04-28T06:45:41.264Z,1006.11
2023-04-28T06:46:41.298Z,1006.14
2023-04-28T06:47:41.288Z,1006.07
2023-04-28T06:48:41.258Z,1006.04
2023-04-28T06:49:41.272Z,1006.09
2023-04-28T06:50:43.466Z,1006.07
2023-04-28T06:51:41.232Z,1006.04
2023-04-28T06:52:41.234Z,1006.03
2023-04-28T06:53:41.226Z,1006.11
2023-04-28T06:54:41.229Z,1006.02
2023-04-28T06:55:41.230Z,1006.02
2023-04-28T06:56:41.223Z,1006.03
2023-04-28T06:57:41.223Z,1006.08
2023-04-28T06:58:41.214Z,1006.08
2023-04-28T06:59:41.211Z,1005.99
2023-04-28T07:00:41.221Z,1005.99
2023-04-28T07:01:41.258Z,1005.99
2023-04-28T07:02:41.366Z,1006.01
2023-04-28T07:03:41.318Z,1006.01
2023-04-28T07:04:41.191Z,1006.00
2023-04-28T07:05:41.213Z,1006.06
2023-04-28T07:06:41.227Z,1006.07
2023-04-28T07:07:41.184Z,1006.06
2023-04-28T07:08:41.176Z,1006.08
2023-04-28T07:09:41.185Z,1006.13
2023-04-28T07:10:41.173Z,1006.13
2023-04-28T07:11:41.181Z,1006.09
2023-04-28T07:12:41.165Z,1006.05
2023-04-28T07:13:41.178Z,1006.06
2023-04-28T07:14:41.174Z,1006.08
2023-04-28T07:15:41.168Z,1006.14
2023-04-28T07:16:41.169Z,1006.14
2023-04-28T07:17:41.189Z,1006.16
2023-04-28T07:18:41.147Z,1006.20
2023-04-28T07:19:41.149Z,1006.22
2023-04-28T07:20:41.142Z,1006.19
2023-04-28T07:21:41.165Z,1006.14
2023-04-28T07:22:41.142Z,1006.09
2023-04-28T07:23:41.146Z,1006.12
2023-04-28T07:24:41.130Z,1006.10
2023-04-28T07:25:41.129Z,1006.13
2023-04-28T07:26:41.123Z,1006.15
2023-04-28T07:27:41.118Z,1006.13
2023-04-28T07:28:41.120Z,1006.14
2023-04-28T07:29:41.109Z,1006.14
2023-04-28T07:30:41.105Z,1006.12
2023-04-28T07:31:41.113Z,1006.16
2023-04-28T07:32:41.153Z,1006.15
2023-04-28T07:33:41.095Z,1006.12
2023-04-28T07:34:41.091Z,1006.09
2023-04-28T07:35:41.092Z,1006.05
2023-04-28T07:36:41.088Z,1006.05
2023-04-28T07:37:41.100Z,1005.99
2023-04-28T07:38:41.096Z,1006.01
2023-04-28T07:39:41.089Z,1006.04
2023-04-28T07:40:41.072Z,1006.05
2023-04-28T07:41:41.074Z,1006.06
2023-04-28T07:42:41.092Z,1006.12
2023-04-28T07:43:41.079Z,1006.13
2023-04-28T07:44:41.063Z,1006.19
2023-04-28T07:45:41.142Z,1006.21
2023-04-28T07:46:41.058Z,1006.18
2023-04-28T07:47:41.063Z,1006.17
2023-04-28T07:48:41.050Z,1006.15
2023-04-28T07:49:41.042Z,1006.17
2023-04-28T07:50:41.050Z,1006.10
2023-04-28T07:51:41.055Z,1006.10
2023-04-28T07:52:41.054Z,1006.10
2023-04-28T07:53:41.249Z,1006.10
2023-04-28T07:54:41.034Z,1006.16
2023-04-28T07:55:41.019Z,1006.16
2023-04-28T07:56:41.019Z,1006.13
2023-04-28T07:57:41.023Z,1006.17
2023-04-28T07:58:41.017Z,1006.14
2023-04-28T07:59:41.025Z,1006.19
2023-04-28T08:00:41.211Z,1006.18
2023-04-28T08:01:41.001Z,1006.18
2023-04-28T08:02:41.164Z,1006.22
2023-04-28T08:03:41.280Z,1006.19
2023-04-28T08:04:41.182Z,1006.22
2023-04-28T08:05:41.026Z,1006.16
2023-04-28T08:06:40.994Z,1006.15
2023-04-28T08:07:40.992Z,1006.13
2023-04-28T08:08:40.978Z,1006.13
2023-04-28T08:10:40.973Z,1006.18
2023-04-28T08:11:40.970Z,1006.20
2023-04-28T08:12:40.997Z,1006.06
2023-04-28T08:13:40.970Z,1006.08
2023-04-28T08:14:40.963Z,1006.04
2023-04-28T08:15:41.013Z,1006.05
2023-04-28T08:16:40.954Z,1006.02
2023-04-28T08:17:40.970Z,1006.03
2023-04-28T08:18:40.982Z,1006.06
2023-04-28T08:19:40.942Z,1006.09
2023-04-28T08:20:40.943Z,1006.04
2023-04-28T08:21:40.934Z,1006.01
2023-04-28T08:22:40.937Z,1005.99
2023-04-28T08:23:40.944Z,1005.97
2023-04-28T08:24:40.930Z,1006.00
2023-04-28T08:25:40.940Z,1006.04
2023-04-28T08:26:40.920Z,1006.03
2023-04-28T08:27:40.914Z,1006.03
2023-04-28T08:28:40.909Z,1006.00
2023-04-28T08:29:40.925Z,1006.04
2023-04-28T08:30:40.910Z,1006.05
2023-04-28T08:31:40.940Z,1006.08
2023-04-28T08:32:40.947Z,1006.09
2023-04-28T08:33:40.918Z,1006.05
2023-04-28T08:34:40.902Z,1006.06
2023-04-28T08:35:40.893Z,1006.05
2023-04-28T08:36:40.887Z,1006.05
2023-04-28T08:37:40.894Z,1006.01
2023-04-28T08:38:40.884Z,1006.04
2023-04-28T08:39:40.896Z,1006.04
2023-04-28T08:40:40.871Z,1006.07
2023-04-28T08:41:40.893Z,1006.10
2023-04-28T08:42:40.882Z,1006.07
2023-04-28T08:43:40.861Z,1006.06
2023-04-28T08:44:40.863Z,1006.06
2023-04-28T08:45:40.938Z,1006.01
2023-04-28T08:46:40.892Z,1006.05
2023-04-28T08:47:40.942Z,1006.02
2023-04-28T08:48:40.854Z,1006.03
2023-04-28T08:49:40.849Z,1006.04
2023-04-28T08:50:40.841Z,1006.06
2023-04-28T08:51:42.182Z,1006.09
2023-04-28T08:52:40.837Z,1006.06
2023-04-28T08:54:06.161Z,1006.09
2023-04-28T08:54:40.827Z,1006.10
2023-04-28T08:55:40.831Z,1006.14
2023-04-28T08:56:40.831Z,1006.14
2023-04-28T08:57:41.461Z,1006.15
2023-04-28T08:58:41.015Z,1006.12
2023-04-28T08:59:40.814Z,1006.16
2023-04-28T09:00:40.810Z,1006.21
2023-04-28T09:01:40.825Z,1006.22
2023-04-28T09:02:40.860Z,1006.26
2023-04-28T09:03:40.971Z,1006.21
2023-04-28T09:04:41.126Z,1006.23
2023-04-28T09:05:40.923Z,1006.22
2023-04-28T09:06:40.834Z,1006.24
2023-04-28T09:07:40.850Z,1006.24
2023-04-28T09:08:40.788Z,1006.22
2023-04-28T09:09:40.828Z,1006.25
2023-04-28T09:10:40.786Z,1006.23
2023-04-28T09:11:40.787Z,1006.23
2023-04-28T09:12:40.792Z,1006.24
2023-04-28T09:13:40.786Z,1006.20
2023-04-28T09:14:40.768Z,1006.15
2023-04-28T09:15:40.765Z,1006.16
2023-04-28T09:16:40.808Z,1006.14
2023-04-28T09:17:40.816Z,1006.14
2023-04-28T09:18:40.765Z,1006.12
2023-04-28T09:19:40.756Z,1006.11
2023-04-28T09:20:40.758Z,1006.12
2023-04-28T09:21:40.759Z,1006.12
2023-04-28T09:22:40.777Z,1006.14
2023-04-28T09:23:40.739Z,1006.12
2023-04-28T09:24:40.737Z,1006.08
2023-04-28T09:25:40.748Z,1006.12
2023-04-28T09:26:40.737Z,1006.15
2023-04-28T09:27:40.742Z,1006.10
2023-04-28T09:28:40.744Z,1006.12
2023-04-28T09:29:40.748Z,1006.10
2023-04-28T09:30:40.730Z,1006.07
2023-04-28T09:31:40.817Z,1006.08
2023-04-28T09:32:40.816Z,1006.05
2023-04-28T09:33:40.714Z,1006.07
2023-04-28T09:34:40.715Z,1006.03
2023-04-28T09:35:40.713Z,1006.06
2023-04-28T09:36:40.709Z,1006.05
2023-04-28T09:37:40.731Z,1006.07
2023-04-28T09:38:40.728Z,1006.04
2023-04-28T09:39:40.701Z,1006.02
2023-04-28T09:40:40.705Z,1006.02
2023-04-28T09:41:40.712Z,1006.01
2023-04-28T09:42:40.705Z,1006.04
2023-04-28T09:43:40.688Z,1006.04
2023-04-28T09:44:40.688Z,1006.03
2023-04-28T09:45:40.716Z,1006.02
2023-04-28T09:46:40.689Z,1006.01
2023-04-28T09:47:40.843Z,1006.03
2023-04-28T09:48:40.681Z,1005.99
2023-04-28T09:49:40.673Z,1006.01
2023-04-28T09:50:40.682Z,1006.01
2023-04-28T09:51:40.666Z,1005.99
2023-04-28T09:52:40.674Z,1005.98
2023-04-28T09:53:40.661Z,1006.01
2023-04-28T09:54:40.663Z,1005.99
2023-04-28T09:55:40.653Z,1006.00
2023-04-28T09:56:40.839Z,1005.99
2023-04-28T09:57:40.702Z,1005.97
2023-04-28T09:58:40.863Z,1005.98
2023-04-28T09:59:40.663Z,1005.95
2023-04-28T10:00:40.650Z,1005.99
2023-04-28T10:01:40.913Z,1005.99
2023-04-28T10:02:43.183Z,1005.95
2023-04-28T10:03:40.742Z,1005.95
2023-04-28T10:04:40.773Z,1005.96
2023-04-28T10:05:40.777Z,1005.96
2023-04-28T10:06:40.634Z,1005.94
2023-04-28T10:07:40.644Z,1005.97
2023-04-28T10:08:40.618Z,1005.97
2023-04-28T10:09:40.620Z,1005.99
2023-04-28T10:10:40.611Z,1005.96
2023-04-28T10:11:40.611Z,1005.95
2023-04-28T10:12:40.612Z,1005.99
2023-04-28T10:13:40.606Z,1005.98
2023-04-28T10:14:40.626Z,1005.97
2023-04-28T10:15:40.617Z,1005.97
2023-04-28T10:16:40.604Z,1005.97
2023-04-28T10:17:40.818Z,1005.95
2023-04-28T10:18:40.592Z,1006.01
2023-04-28T10:19:40.590Z,1006.03
2023-04-28T10:20:40.588Z,1006.01
2023-04-28T10:21:40.583Z,1006.00
2023-04-28T10:22:40.581Z,1005.97
2023-04-28T10:23:40.577Z,1006.01
2023-04-28T10:24:40.575Z,1005.97
2023-04-28T10:25:40.573Z,1005.95
2023-04-28T10:26:40.577Z,1005.97
2023-04-28T10:27:40.570Z,1005.93
2023-04-28T10:28:42.041Z,1005.95
2023-04-28T10:29:40.566Z,1005.92
2023-04-28T10:30:40.569Z,1005.93
2023-04-28T10:31:40.590Z,1005.97
2023-04-28T10:32:40.565Z,1005.98
2023-04-28T10:33:40.572Z,1005.96
2023-04-28T10:34:40.552Z,1006.00
2023-04-28T10:35:40.554Z,1006.02
2023-04-28T10:36:40.547Z,1006.01
2023-04-28T10:37:40.541Z,1006.03
2023-04-28T10:38:40.536Z,1006.02
2023-04-28T10:39:40.552Z,1006.03
2023-04-28T10:40:40.558Z,1006.00
2023-04-28T10:41:40.532Z,1006.05
2023-04-28T10:42:40.528Z,1006.01
2023-04-28T10:43:40.524Z,1006.01
2023-04-28T10:44:40.531Z,1005.99
2023-04-28T10:45:41.027Z,1006.01
2023-04-28T10:46:40.525Z,1005.99
2023-04-28T10:47:40.532Z,1005.99
2023-04-28T10:48:40.518Z,1005.97
2023-04-28T10:49:40.522Z,1005.96
2023-04-28T10:50:40.505Z,1005.97
2023-04-28T10:51:40.504Z,1005.98
2023-04-28T10:52:40.500Z,1005.97
2023-04-28T10:53:40.499Z,1005.96
2023-04-28T10:54:40.493Z,1005.97
2023-04-28T10:55:40.494Z,1005.98
2023-04-28T10:56:42.078Z,1005.99
2023-04-28T10:57:40.490Z,1006.01
2023-04-28T10:58:40.787Z,1006.00
2023-04-28T10:59:40.481Z,1005.99
2023-04-28T11:00:40.493Z,1005.96
2023-04-28T11:01:40.547Z,1005.99
2023-04-28T11:02:43.643Z,1005.99
2023-04-28T11:03:40.610Z,1005.97
2023-04-28T11:04:40.578Z,1005.99
2023-04-28T11:05:40.482Z,1005.98
2023-04-28T11:06:40.465Z,1005.96
2023-04-28T11:07:40.480Z,1006.00
2023-04-28T11:08:40.457Z,1005.96
2023-04-28T11:09:40.456Z,1005.95
2023-04-28T11:10:40.453Z,1005.96
2023-04-28T11:11:40.505Z,1005.94
2023-04-28T11:12:40.446Z,1005.90
2023-04-28T11:13:42.350Z,1005.93
2023-04-28T11:14:40.855Z,1005.96
2023-04-28T11:15:40.442Z,1005.94
2023-04-28T11:16:40.551Z,1005.93
2023-04-28T11:17:40.462Z,1005.92
2023-04-28T11:18:40.560Z,1005.89
2023-04-28T11:19:40.454Z,1005.89
2023-04-28T11:20:40.426Z,1005.88
2023-04-28T11:21:40.443Z,1005.83
2023-04-28T11:22:40.416Z,1005.86
2023-04-28T11:23:40.415Z,1005.87
2023-04-28T11:24:40.416Z,1005.89
2023-04-28T11:25:40.407Z,1005.85
2023-04-28T11:26:40.403Z,1005.84
2023-04-28T11:27:40.402Z,1005.83
2023-04-28T11:28:40.398Z,1005.82
2023-04-28T11:29:40.396Z,1005.77
2023-04-28T11:30:40.394Z,1005.78
2023-04-28T11:31:40.430Z,1005.76
2023-04-28T11:32:40.413Z,1005.74
2023-04-28T11:33:40.388Z,1005.77
2023-04-28T11:34:40.388Z,1005.77
2023-04-28T11:35:40.384Z,1005.75
2023-04-28T11:36:40.377Z,1005.78
2023-04-28T11:37:40.396Z,1005.79
2023-04-28T11:38:40.376Z,1005.81
2023-04-28T11:39:40.373Z,1005.79
2023-04-28T11:40:40.370Z,1005.77
2023-04-28T11:41:40.381Z,1005.79
2023-04-28T11:42:40.364Z,1005.77
2023-04-28T11:43:47.351Z,1005.77
2023-04-28T11:44:40.361Z,1005.73
2023-04-28T11:45:40.370Z,1005.74
2023-04-28T11:46:40.353Z,1005.71
2023-04-28T11:47:40.404Z,1005.73
2023-04-28T11:48:40.351Z,1005.70
2023-04-28T11:49:40.350Z,1005.72
2023-04-28T11:50:40.350Z,1005.69
2023-04-28T11:51:40.342Z,1005.67
2023-04-28T11:52:40.340Z,1005.65
2023-04-28T11:53:40.359Z,1005.67
2023-04-28T11:54:40.345Z,1005.65
2023-04-28T11:55:40.345Z,1005.69
2023-04-28T11:56:40.339Z,1005.69
2023-04-28T11:57:40.335Z,1005.68
2023-04-28T11:58:40.782Z,1005.74
2023-04-28T11:59:42.748Z,1005.70
2023-04-28T12:00:40.320Z,1005.69
2023-04-28T12:01:40.320Z,1005.71
2023-04-28T12:02:40.419Z,1005.71
2023-04-28T12:03:40.410Z,1005.74
2023-04-28T12:04:40.325Z,1005.76
2023-04-28T12:05:40.362Z,1005.76
2023-04-28T12:06:40.304Z,1005.74